Updated02/26/2024 7:03am 
 

Nearby Airport METAR Reports

 

KVSF - Springfield, Vermont, USA
Distance from station: WSW 8mi, 12km
Updated: 02/26/2024 6:54am
Clear
Clear
 Wind from calm
Wind: Calm
Temperature: 27°F , -3°C
Dew Point: 18°F , -8°C
Humidity: 69%
Barometer: 29.95 inHg , 1014.2 hPa
Clouds: Clear
Visibility: 10 miles , 16 km
2024/02/26 11:54 KVSF 261154Z AUTO 00000KT 10SM CLR M03/M08 A2995 RMK AO2 SLP151 60000 T10331078 11017 21039 55004
KLEB - Lebanon, New Hampshire, USA
Distance from station: N 18mi, 29km
Updated: 02/26/2024 6:53am
Overcast
Overcast
 Wind from S
Wind: S 8 mph , 13 km/h
Temperature: 28°F , -2°C
Wind Chill: 20°F , -7°C
Dew Point: 19°F , -7°C
Humidity: 69%
Barometer: 29.93 inHg , 1013.5 hPa
Clouds: Overcast
Visibility: 10 miles , 16 km
Cloud details: Overcast 6000 ft
2024/02/26 11:53 KLEB 261153Z 18007KT 10SM OVC060 M02/M07 A2993 RMK AO2 SLP145 T10171067 11011 21022 55004
KRUT - Rutland State, Vermont, USA
Distance from station: WNW 31mi, 50km
Updated: 02/26/2024 6:56am
Overcast
Overcast
 Wind from calm
Wind: Calm
Barometer: 29.91 inHg , 1012.9 hPa
Clouds: Overcast
Visibility: 10 miles , 16 km
Cloud details: Overcast 6000 ft
2024/02/26 11:56 KRUT 261156Z AUTO 00000KT 10SM OVC060 A2991 RMK AO2 SLPNO 60000 56003 FZRANO $
 
KEEN - Keene/Dillant, New Hampshire, USA
Distance from station: S 34mi, 55km
Updated: 02/26/2024 6:56am
Overcast
Overcast
 Wind from calm
Wind: Calm
Temperature: 28°F , -2°C
Dew Point: 21°F , -6°C
Humidity: 74%
Barometer: 29.97 inHg , 1014.9 hPa
Clouds: Overcast
Visibility: 10 miles , 16 km
Cloud details: Overcast 7000 ft
2024/02/26 11:56 KEEN 261156Z AUTO 00000KT 10SM OVC070 M02/M06 A2997 RMK AO2 SLP160 T10221056 11017 21028 55003 FZRANO $
K1P1 - Plymouth, New Hampshire, USA
Distance from station: NE 42mi, 67km
Updated: 02/26/2024 6:55am
Overcast
Overcast
 Wind from calm
Wind: Calm
Temperature: 25°F , -4°C
Dew Point: 18°F , -8°C
Humidity: 74%
Barometer: 29.95 inHg , 1014.2 hPa
Clouds: Overcast
Visibility: 10 miles , 16 km
Cloud details: Overcast 6500 ft
2024/02/26 11:55 K1P1 261155Z AUTO 00000KT 10SM OVC065 M04/M08 A2995 RMK AO2 T10451084 11045 21072
KAFN - Jaffrey, New Hampshire, USA
Distance from station: SSE 44mi, 70km
Updated: 02/26/2024 6:52am
Clear
Clear
 Wind from S
Wind: S 3 mph , 6 km/h
Temperature: 28°F , -2°C
Dew Point: 21°F , -6°C
Humidity: 74%
Barometer: 29.94 inHg , 1013.9 hPa
Clouds: Clear
Visibility: 10 miles , 16 km
2024/02/26 11:52 KAFN 261152Z AUTO 19003KT 10SM CLR M02/M06 A2994 RMK AO2 SLP155 T10171056 11011 21022 55003
 
KCON - Concord, New Hampshire, USA
Distance from station: ESE 45mi, 73km
Updated: 02/26/2024 6:51am
Overcast
Overcast
 Wind from SSE
Wind: SSE 6 mph , 9 km/h
Temperature: 28°F , -2°C
Wind Chill: 21°F , -6°C
Dew Point: 19°F , -7°C
Humidity: 69%
Barometer: 29.95 inHg , 1014.2 hPa
Clouds: Overcast
Visibility: 10 miles , 16 km
Cloud details: Overcast 7000 ft
2024/02/26 11:51 KCON 261151Z AUTO 16005KT 10SM OVC070 M02/M07 A2995 RMK AO2 SLP147 T10171067 11017 21039 58005
KLCI - Laconia Muni, New Hampshire, USA
Distance from station: ENE 49mi, 80km
Updated: 02/26/2024 6:56am
Overcast
Overcast
 Wind from W
Wind: W 6 mph , 9 km/h
Temperature: 28°F , -2°C
Wind Chill: 21°F , -6°C
Dew Point: 18°F , -8°C
Humidity: 64%
Barometer: 29.94 inHg , 1013.9 hPa
Clouds: Overcast
Visibility: 10 miles , 16 km
Cloud details: Overcast 7000 ft
2024/02/26 11:56 KLCI 261156Z AUTO 26005KT 10SM OVC070 M02/M08 A2994 RMK AO2 SLP148 60000 T10221078 11022 21061 58001 FZRANO $
KDDH - Bennington, Vermont, USA
Distance from station: SW 55mi, 89km
Updated: 02/26/2024 6:54am
Clear
Clear
 Wind from calm
Wind: Calm
Temperature: 30°F , -1°C
Dew Point: 18°F , -8°C
Humidity: 59%
Barometer: 29.93 inHg , 1013.5 hPa
Clouds: Clear
Visibility: 10 miles , 16 km
2024/02/26 11:54 KDDH 261154Z AUTO 00000KT 10SM CLR M01/M08 A2993 RMK AO2 SLP141 T10061078 10022 21006 55001
 
K6B0 - Middlebury, Vermont, USA
Distance from station: NW 56mi, 90km
Updated: 02/26/2024 6:55am
Overcast
Overcast
 Wind from S
Wind: S 10 mph , 17 km/h
Temperature: 34°F , 1°C
Wind Chill: 26°F , -3°C
Dew Point: 16°F , -9°C
Humidity: 48%
Barometer: 29.90 inHg , 1012.5 hPa
Clouds: Overcast
Visibility: 10 miles , 16 km
Cloud details: Overcast 6000 ft
2024/02/26 11:55 K6B0 261155Z AUTO 17009KT 10SM OVC060 01/M09 A2990 RMK AO2 T00131092 10014 21010
KMHT - Manchester, New Hampshire, USA
Distance from station: ESE 56mi, 90km
Updated: 02/26/2024 6:53am
Mostly cloudy
Mostly cloudy
 Wind from S
Wind: S 7 mph , 11 km/h
Temperature: 32°F , 0°C
Wind Chill: 25°F , -4°C
Dew Point: 21°F , -6°C
Humidity: 64%
Barometer: 29.95 inHg , 1014.2 hPa
Clouds: Mostly cloudy
Visibility: 10 miles , 16 km
Cloud details: Mostly cloudy 6500 ft
Mostly cloudy 25000 ft
2024/02/26 11:53 KMHT 261153Z 18006KT 10SM BKN065 BKN250 00/M06 A2995 RMK AO2 SLP162 T00001056 10006 21022 56005 $
KORE - Orange, Massachusetts, USA
Distance from station: S 56mi, 90km
Updated: 02/26/2024 6:52am
Clear
Clear
 Wind from S
Wind: S 3 mph , 6 km/h
Temperature: 30°F , -1°C
Dew Point: 23°F , -5°C
Humidity: 75%
Barometer: 29.98 inHg , 1015.2 hPa
Clouds: Clear
Visibility: 10 miles , 16 km
2024/02/26 11:52 KORE 261152Z AUTO 19003KT 10SM CLR M01/M05 A2998 RMK AO2 SLP160 T10111050 11006 21022 58003
 
KMPV - Montpelier/Barre, Vermont, USA
Distance from station: N 58mi, 93km
Updated: 02/26/2024 6:51am
Overcast
Overcast
 Wind from calm
Wind: Calm
Temperature: 28°F , -2°C
Dew Point: 23°F , -5°C
Humidity: 80%
Barometer: 29.90 inHg , 1012.5 hPa
Clouds: Overcast
Visibility: 10 miles , 16 km
Cloud details: Overcast 4900 ft
2024/02/26 11:51 KMPV 261151Z AUTO 00000KT 10SM OVC049 M02/M05 A2990 RMK AO2 SLP140 60000 T10221050 11017 21039 55003
KASH - Nashua/Boire Fld, New Hampshire, USA
Distance from station: SE 59mi, 95km
Updated: 02/26/2024 6:56am
Overcast
Overcast
 Wind from calm
Wind: Calm
Temperature: 32°F , 0°C
Dew Point: 25°F , -4°C
Humidity: 75%
Barometer: 29.98 inHg , 1015.2 hPa
Clouds: Overcast
Visibility: 10 miles , 16 km
Cloud details: Overcast 7500 ft
2024/02/26 11:56 KASH 261156Z 00000KT 10SM OVC075 00/M04 A2998 RMK AO2 SLP160 T00001044 10000 21028 55005
KAQW - North Adams, Massachusetts, USA
Distance from station: SW 62mi, 99km
Updated: 02/26/2024 6:52am
Mostly cloudy
Mostly cloudy
 Wind from calm
Wind: Calm
Temperature: 30°F , -1°C
Dew Point: 21°F , -6°C
Humidity: 69%
Barometer: 29.95 inHg , 1014.2 hPa
Clouds: Mostly cloudy
Visibility: 10 miles , 16 km
Cloud details: Mostly cloudy 6000 ft
2024/02/26 11:52 KAQW 261152Z AUTO 00000KT 10SM BKN060 M01/M06 A2995 RMK AO2 SLP151 T10061061 10017 21006 55004
 
KGFL - Glens Falls, New York, USA
Distance from station: W 63mi, 101km
Updated: 02/26/2024 6:53am
Overcast
Overcast
 Wind from SW
Wind: SW 5 mph , 7 km/h
Temperature: 30°F , -1°C
Wind Chill: 25°F , -4°C
Dew Point: 18°F , -8°C
Humidity: 59%
Barometer: 29.94 inHg , 1013.9 hPa
Clouds: Overcast
Visibility: 10 miles , 16 km
Cloud details: Overcast 6500 ft
2024/02/26 11:53 KGFL 261153Z AUTO 23004KT 10SM OVC065 M01/M08 A2994 RMK AO2 SLP147 T10061078 10000 21011 55001
KFIT - Fitchburg, Massachusetts, USA
Distance from station: SSE 65mi, 105km
Updated: 02/26/2024 6:52am
Mostly cloudy
Mostly cloudy
 Wind from calm
Wind: Calm
Temperature: 34°F , 1°C
Dew Point: 21°F , -6°C
Humidity: 60%
Barometer: 29.98 inHg , 1015.2 hPa
Clouds: Mostly cloudy
Visibility: 10 miles , 16 km
Cloud details: Mostly cloudy 7000 ft
2024/02/26 11:52 KFIT 261152Z AUTO 00000KT 10SM BKN070 01/M06 A2998 RMK AO2 SLP156 60000 T00061061 10011 21017 55005
KDAW - Rochester, New Hampshire, USA
Distance from station: E 73mi, 118km
Updated: 02/26/2024 6:51am
Overcast
Overcast
 Wind from calm
Wind: Calm
Temperature: 28°F , -2°C
Dew Point: 19°F , -7°C
Humidity: 69%
Barometer: 29.95 inHg , 1014.2 hPa
Clouds: Overcast
Visibility: 10 miles , 16 km
Cloud details: Overcast 7500 ft
2024/02/26 11:51 KDAW 261151Z AUTO 00000KT 10SM OVC075 M02/M07 A2995 RMK AO2 SLP144 T10171072 11017 21039 56007
 
K1V4 - St. Johnsbury, Vermont, USA
Distance from station: NNE 74mi, 119km
Updated: 02/26/2024 6:54am

 
Temperature: 28°F , -2°C
Dew Point: 18°F , -8°C
Humidity: 64%
Barometer: 29.88 inHg , 1011.9 hPa
2024/02/26 11:54 K1V4 261154Z AUTO M02/M08 A2988 RMK AO1 SLP129 60001 70001 T10171078 11006 21028 56006
KLWM - Lawrence, Massachusetts, USA
Distance from station: SE 77mi, 124km
Updated: 02/26/2024 6:54am
Overcast
Overcast
 Wind from SSW
Wind: SSW 9 mph , 15 km/h
Temperature: 32°F , 0°C
Wind Chill: 24°F , -4°C
Dew Point: 25°F , -4°C
Humidity: 75%
Barometer: 30.00 inHg , 1015.9 hPa
Clouds: Overcast
Visibility: 10 miles , 16 km
Cloud details: Overcast 7000 ft
2024/02/26 11:54 KLWM 261154Z 21008KT 10SM OVC070 00/M04 A3000 RMK AO2 SLP159 T00001044 10000 21028 57007 $



Flag Counter
free counter page views since 4/29/2009